Terminal Aerodrome Forecast
Issued by NWS

Home | Current Version | Previous Version | Text Only | Print | Product List | Glossary On
Versions: 1 2 3 4 5 6 7 8 9 10 11 12 13 14 15 16 17 18 19 20 21 22 23 24 25 26 27 28 29
000
FTUS45 KVEF 231137
TAFLAS
TAF
KLAS 231137Z 2312/2412 18014G24KT P6SM VCSH SCT040 BKN060
      TEMPO 2312/2314 -SHRA BKN040
     FM231500 20024G34KT P6SM VCSH SCT040 BKN060
     FM231800 22024G34KT P6SM FEW050 SCT080 SCT200
     FM240300 22014KT P6SM BKN100
     FM241000 22008KT P6SM FEW100=

USA.gov is the U.S. government's official web portal to all federal, state and local government web resources and services.